Skip Navigation Links Skip Navigation Links

Current Weather

Desert Rock, Mercury, Nev.

For information only: do not use for flight planning or navigation.
Latest weather
Observation time Wednesday, August 12, 2020 9:53 AM PDT
Local time Wednesday, August 12, 2020 10:29 AM PDT
Flight conditions Visual Meteorological Conditions
Winds
Wind direction Southwest (220°)
Wind speed 10 mph
Wind gusting to 16 mph
Visibility 10 mi.
Sky condition
Ceiling unlimited
Sky clear
Temperature 89°F
Dewpoint 25°F
Altimeter 30.02 in.Hg
Derived measurements
Relative humidity 10%
Heat index 89°F
Density altitude 5189 ft.
Sea-level pressure 29.85 in.Hg
Remarks
Fully automated report.
Automated weather observing station with precipitation discriminator.
METAR KDRA 121653Z AUTO 22009G14KT 10SM CLR 32/M04 A3002 RMK AO2 SLP108 T03171039

Settings

Location code

InnerDrive.Weather 4.0.6770.0 Release CLR 4.0.30319.42000
Copyright ©2018 Inner Drive Technology. All rights reserved. Portions Copyright ©1986-2018 David Braverman.

Find weather

Site navigation


Skip Navigation Links

Place info

Page info

PayPal - The safer, easier way to pay online!

Return home.

Copyright ©2020 Inner Drive Technology. Purveyors of fine, hand-crafted computer software. Page printed 2020-08-12T17:29:05 UTC.